Cameron, Oklahoma
Current Conditions -  °F | °C
As of 12:55 PM on Monday 20 Oct 2014 (Local Time) from KRKR Reporting Station
Overcast Overcast  
Wind Chill: 65°   Ceiling: 4800
Heat Index: 65°   Visibility: 10mi
Dew Point: 54°   Wind: 0mph
Humidity: 66%   Direction: NA
Pressure: 30.08"   Gusts: NA
Location:  35.13°N, 94.53°W
Report Text: KRKR 201755Z AUTO 00000KT 10SM OVC048 19/12 A3008 RMK AO2 T01860122 10186 20111
Loading
Personal Weather Stations






























Interactive Weather Map
Tropical Storm Tracking
New forecast layout! Learn more

10-Day Weather Forecast

Advertisements
Track Severe Weather on mobile